createdAt,value
2024-03-02T00:00:45.879Z,49.80
2024-03-02T00:01:45.827Z,54.70
2024-03-02T00:02:45.784Z,60.60
2024-03-02T00:03:45.828Z,58.00
2024-03-02T00:04:45.742Z,57.70
2024-03-02T00:05:45.738Z,59.60
2024-03-02T00:06:45.768Z,60.80
2024-03-02T00:07:45.752Z,64.90
2024-03-02T00:08:45.733Z,60.40
2024-03-02T00:09:45.729Z,63.60
2024-03-02T00:10:45.719Z,64.10
2024-03-02T00:11:45.717Z,61.70
2024-03-02T00:12:45.749Z,57.60
2024-03-02T00:13:45.684Z,58.50
2024-03-02T00:14:45.679Z,63.60
2024-03-02T00:15:45.719Z,63.90
2024-03-02T00:16:45.660Z,73.80
2024-03-02T00:17:45.704Z,83.70
2024-03-02T00:18:45.688Z,76.10
2024-03-02T00:19:45.641Z,71.30
2024-03-02T00:20:45.634Z,62.80
2024-03-02T00:21:45.707Z,60.70
2024-03-02T00:22:46.841Z,52.50
2024-03-02T00:23:45.645Z,51.20
2024-03-02T00:24:45.646Z,53.60
2024-03-02T00:25:45.604Z,50.60
2024-03-02T00:26:45.624Z,50.90
2024-03-02T00:27:45.607Z,50.10
2024-03-02T00:28:45.573Z,51.10
2024-03-02T00:29:45.568Z,50.30
2024-03-02T00:30:45.599Z,53.20
2024-03-02T00:31:45.585Z,54.80
2024-03-02T00:32:45.563Z,55.00
2024-03-02T00:33:45.661Z,60.50
2024-03-02T00:34:45.535Z,58.90
2024-03-02T00:35:45.600Z,57.50
2024-03-02T00:36:45.564Z,55.90
2024-03-02T00:37:45.527Z,56.40
2024-03-02T00:38:45.507Z,59.80
2024-03-02T00:39:45.565Z,56.20
2024-03-02T00:40:45.525Z,55.80
2024-03-02T00:41:45.481Z,55.50
2024-03-02T00:42:45.526Z,56.70
2024-03-02T00:43:47.469Z,51.00
2024-03-02T00:44:46.487Z,47.30
2024-03-02T00:45:45.535Z,46.10
2024-03-02T00:46:45.493Z,48.70
2024-03-02T00:47:45.461Z,45.40
2024-03-02T00:48:46.451Z,45.60
2024-03-02T00:49:45.417Z,46.40
2024-03-02T00:50:45.446Z,53.10
2024-03-02T00:51:45.422Z,50.30
2024-03-02T00:52:45.393Z,46.70
2024-03-02T00:53:45.398Z,53.30
2024-03-02T00:54:45.411Z,48.00
2024-03-02T00:55:45.484Z,50.70
2024-03-02T00:56:45.379Z,55.70
2024-03-02T00:57:45.480Z,57.90
2024-03-02T00:58:45.351Z,55.00
2024-03-02T00:59:45.375Z,51.10
2024-03-02T01:00:45.412Z,48.00
2024-03-02T01:01:45.376Z,51.00
2024-03-02T01:02:45.328Z,54.40
2024-03-02T01:03:45.389Z,56.30
2024-03-02T01:04:45.343Z,56.60
2024-03-02T01:05:45.337Z,60.50
2024-03-02T01:06:45.349Z,56.30
2024-03-02T01:07:45.285Z,53.80
2024-03-02T01:08:45.271Z,48.50
2024-03-02T01:09:45.283Z,48.80
2024-03-02T01:10:45.378Z,51.80
2024-03-02T01:11:45.246Z,48.00
2024-03-02T01:12:45.300Z,50.40
2024-03-02T01:13:45.274Z,50.70
2024-03-02T01:14:45.238Z,51.30
2024-03-02T01:15:45.258Z,46.80
2024-03-02T01:16:45.249Z,46.00
2024-03-02T01:17:45.210Z,45.90
2024-03-02T01:18:45.350Z,42.90
2024-03-02T01:19:45.525Z,48.30
2024-03-02T01:20:45.206Z,44.80
2024-03-02T01:21:45.196Z,45.00
2024-03-02T01:22:45.166Z,43.10
2024-03-02T01:23:45.227Z,42.70
2024-03-02T01:24:45.225Z,42.50
2024-03-02T01:25:45.169Z,42.30
2024-03-02T01:26:45.138Z,45.40
2024-03-02T01:27:46.781Z,46.40
2024-03-02T01:28:45.151Z,44.40
2024-03-02T01:29:45.141Z,42.10
2024-03-02T01:30:45.139Z,44.40
2024-03-02T01:31:45.133Z,47.30
2024-03-02T01:32:45.193Z,45.50
2024-03-02T01:33:45.130Z,46.10
2024-03-02T01:34:45.105Z,48.90
2024-03-02T01:35:45.101Z,46.50
2024-03-02T01:36:45.119Z,47.90
2024-03-02T01:37:45.063Z,48.50
2024-03-02T01:38:45.060Z,52.70
2024-03-02T01:39:45.087Z,55.50
2024-03-02T01:40:45.042Z,55.40
2024-03-02T01:41:45.032Z,53.10
2024-03-02T01:42:45.064Z,51.60
2024-03-02T01:43:45.036Z,53.60
2024-03-02T01:44:45.044Z,51.00
2024-03-02T01:45:45.023Z,51.20
2024-03-02T01:46:44.987Z,46.20
2024-03-02T01:47:45.008Z,47.70
2024-03-02T01:48:45.951Z,50.30
2024-03-02T01:49:44.962Z,51.30
2024-03-02T01:50:44.957Z,53.60
2024-03-02T01:51:44.979Z,53.70
2024-03-02T01:52:44.941Z,52.50
2024-03-02T01:53:44.964Z,48.90
2024-03-02T01:54:44.973Z,47.30
2024-03-02T01:55:44.934Z,46.90
2024-03-02T01:56:44.906Z,44.50
2024-03-02T01:57:44.957Z,49.10
2024-03-02T01:58:44.915Z,45.90
2024-03-02T01:59:44.883Z,42.90
2024-03-02T02:00:44.935Z,45.70
2024-03-02T02:01:44.908Z,41.50
2024-03-02T02:02:44.891Z,41.70
2024-03-02T02:03:44.875Z,41.70
2024-03-02T02:04:44.905Z,40.30
2024-03-02T02:05:44.852Z,43.50
2024-03-02T02:06:44.872Z,39.20
2024-03-02T02:07:44.848Z,39.50
2024-03-02T02:08:44.807Z,38.30
2024-03-02T02:09:44.845Z,35.90
2024-03-02T02:10:44.841Z,33.30
2024-03-02T02:11:44.823Z,32.60
2024-03-02T02:12:44.970Z,33.70
2024-03-02T02:13:44.787Z,34.00
2024-03-02T02:14:44.787Z,32.80
2024-03-02T02:15:44.784Z,35.20
2024-03-02T02:16:45.070Z,35.20
2024-03-02T02:17:44.772Z,32.80
2024-03-02T02:18:44.771Z,35.10
2024-03-02T02:19:44.726Z,35.00
2024-03-02T02:20:44.727Z,34.50
2024-03-02T02:21:45.364Z,36.70
2024-03-02T02:22:44.711Z,34.10
2024-03-02T02:23:44.717Z,34.40
2024-03-02T02:24:44.729Z,33.10
2024-03-02T02:25:45.535Z,33.90
2024-03-02T02:26:45.531Z,32.20
2024-03-02T02:27:44.740Z,31.20
2024-03-02T02:28:44.665Z,35.10
2024-03-02T02:29:44.652Z,34.60
2024-03-02T02:30:44.692Z,32.30
2024-03-02T02:31:44.663Z,32.60
2024-03-02T02:32:44.655Z,30.80
2024-03-02T02:33:44.672Z,34.50
2024-03-02T02:34:44.623Z,32.60
2024-03-02T02:35:44.633Z,37.80
2024-03-02T02:36:44.621Z,37.50
2024-03-02T02:37:44.607Z,40.50
2024-03-02T02:38:44.588Z,40.10
2024-03-02T02:39:44.594Z,41.30
2024-03-02T02:40:44.597Z,43.20
2024-03-02T02:41:44.561Z,43.90
2024-03-02T02:42:44.645Z,41.70
2024-03-02T02:43:44.547Z,40.90
2024-03-02T02:44:45.416Z,42.90
2024-03-02T02:45:44.612Z,39.70
2024-03-02T02:46:44.528Z,42.20
2024-03-02T02:47:44.638Z,39.70
2024-03-02T02:48:44.551Z,41.20
2024-03-02T02:49:44.526Z,41.40
2024-03-02T02:50:44.516Z,40.20
2024-03-02T02:51:44.564Z,44.00
2024-03-02T02:52:44.476Z,41.90
2024-03-02T02:53:44.484Z,49.50
2024-03-02T02:54:44.563Z,45.90
2024-03-02T02:55:44.462Z,46.70
2024-03-02T02:56:44.449Z,43.80
2024-03-02T02:57:44.839Z,46.80
2024-03-02T02:58:44.441Z,43.10
2024-03-02T02:59:44.452Z,43.90
2024-03-02T03:00:44.550Z,44.20
2024-03-02T03:01:44.452Z,44.70
2024-03-02T03:02:44.412Z,41.40
2024-03-02T03:03:44.488Z,42.80
2024-03-02T03:04:44.416Z,41.90
2024-03-02T03:05:44.383Z,41.80
2024-03-02T03:06:44.389Z,40.50
2024-03-02T03:07:44.370Z,46.30
2024-03-02T03:08:44.385Z,49.60
2024-03-02T03:09:44.409Z,46.20
2024-03-02T03:10:44.344Z,45.80
2024-03-02T03:11:44.351Z,47.10
2024-03-02T03:12:45.274Z,47.20
2024-03-02T03:13:45.358Z,47.20
2024-03-02T03:14:44.322Z,42.00
2024-03-02T03:15:44.396Z,42.20
2024-03-02T03:16:44.305Z,38.80
2024-03-02T03:17:44.308Z,40.70
2024-03-02T03:18:44.341Z,39.30
2024-03-02T03:19:44.283Z,41.80
2024-03-02T03:20:44.280Z,43.30
2024-03-02T03:21:44.285Z,43.20
2024-03-02T03:22:44.312Z,47.30
2024-03-02T03:23:44.268Z,44.30
2024-03-02T03:24:44.334Z,44.80
2024-03-02T03:25:44.250Z,47.60
2024-03-02T03:26:44.245Z,39.60
2024-03-02T03:27:44.329Z,41.50
2024-03-02T03:28:44.209Z,42.40
2024-03-02T03:29:44.207Z,40.50
2024-03-02T03:30:44.221Z,42.80
2024-03-02T03:31:44.192Z,45.90
2024-03-02T03:32:44.646Z,42.40
2024-03-02T03:33:44.244Z,41.90
2024-03-02T03:34:44.188Z,39.30
2024-03-02T03:35:44.160Z,37.00
2024-03-02T03:36:44.771Z,39.00
2024-03-02T03:37:44.824Z,40.00
2024-03-02T03:38:44.141Z,41.50
2024-03-02T03:39:44.176Z,39.60
2024-03-02T03:40:44.115Z,38.30
2024-03-02T03:41:44.139Z,39.70
2024-03-02T03:42:44.150Z,37.00
2024-03-02T03:43:44.093Z,40.10
2024-03-02T03:44:44.095Z,40.30
2024-03-02T03:45:44.131Z,41.10
2024-03-02T03:46:44.102Z,41.30
2024-03-02T03:47:44.085Z,42.20
2024-03-02T03:48:44.122Z,45.90
2024-03-02T03:49:44.053Z,41.50
2024-03-02T03:50:44.071Z,40.30
2024-03-02T03:51:44.092Z,40.20
2024-03-02T03:52:44.034Z,42.00
2024-03-02T03:53:44.025Z,45.30
2024-03-02T03:54:44.054Z,43.70
2024-03-02T03:55:44.039Z,44.70
2024-03-02T03:56:44.002Z,44.10
2024-03-02T03:57:44.008Z,43.30
2024-03-02T03:58:43.986Z,45.00
2024-03-02T03:59:43.997Z,39.60
2024-03-02T04:00:44.038Z,40.50
2024-03-02T04:01:44.018Z,41.60
2024-03-02T04:02:43.953Z,37.20
2024-03-02T04:03:43.999Z,38.50
2024-03-02T04:04:43.981Z,37.90
2024-03-02T04:05:44.068Z,40.60
2024-03-02T04:06:43.988Z,43.40
2024-03-02T04:07:43.920Z,38.70
2024-03-02T04:08:43.908Z,37.90
2024-03-02T04:09:43.969Z,35.60
2024-03-02T04:10:43.910Z,38.20
2024-03-02T04:11:44.886Z,41.40
2024-03-02T04:12:43.895Z,39.60
2024-03-02T04:13:43.869Z,43.20
2024-03-02T04:14:44.084Z,40.60
2024-03-02T04:15:43.909Z,39.00
2024-03-02T04:16:43.877Z,40.50
2024-03-02T04:17:43.872Z,39.40
2024-03-02T04:18:43.837Z,42.40
2024-03-02T04:19:43.849Z,37.20
2024-03-02T04:20:43.810Z,43.30
2024-03-02T04:21:43.861Z,44.60
2024-03-02T04:22:43.799Z,40.60
2024-03-02T04:23:43.804Z,46.00
2024-03-02T04:24:43.812Z,44.70
2024-03-02T04:25:43.778Z,45.60
2024-03-02T04:26:43.772Z,43.60
2024-03-02T04:27:43.775Z,44.30
2024-03-02T04:28:43.787Z,47.10
2024-03-02T04:29:43.789Z,46.70
2024-03-02T04:30:43.804Z,48.40
2024-03-02T04:31:43.782Z,48.40
2024-03-02T04:32:43.747Z,46.70
2024-03-02T04:33:43.780Z,51.00
2024-03-02T04:34:43.746Z,50.70
2024-03-02T04:35:43.705Z,49.20
2024-03-02T04:36:43.711Z,46.20
2024-03-02T04:37:43.703Z,64.00
2024-03-02T04:38:43.704Z,55.60
2024-03-02T04:40:16.436Z,67.90
2024-03-02T04:40:43.669Z,53.40
2024-03-02T04:41:43.660Z,39.50
2024-03-02T04:42:43.756Z,43.20
2024-03-02T04:43:43.653Z,49.40
2024-03-02T04:44:43.622Z,56.00
2024-03-02T04:45:44.791Z,48.40
2024-03-02T04:46:43.623Z,50.80
2024-03-02T04:47:43.633Z,51.40
2024-03-02T04:48:43.674Z,60.30
2024-03-02T04:49:43.674Z,46.60
2024-03-02T04:50:43.597Z,50.10
2024-03-02T04:51:43.684Z,49.40
2024-03-02T04:52:43.620Z,47.20
2024-03-02T04:53:43.574Z,51.70
2024-03-02T04:54:43.608Z,59.50
2024-03-02T04:55:43.558Z,85.40
2024-03-02T04:56:43.622Z,64.60
2024-03-02T04:57:43.553Z,47.80
2024-03-02T04:58:43.544Z,47.40
2024-03-02T04:59:43.521Z,54.30
2024-03-02T05:00:43.602Z,46.00
2024-03-02T05:01:43.561Z,46.60
2024-03-02T05:02:43.500Z,55.10
2024-03-02T05:03:43.534Z,54.90
2024-03-02T05:04:43.489Z,50.40
2024-03-02T05:05:43.527Z,53.90
2024-03-02T05:06:43.608Z,54.50
2024-03-02T05:07:43.470Z,61.60
2024-03-02T05:08:43.453Z,64.70
2024-03-02T05:09:43.517Z,63.40
2024-03-02T05:10:43.490Z,71.60
2024-03-02T05:11:43.554Z,64.60
2024-03-02T05:12:43.578Z,58.20
2024-03-02T05:13:43.406Z,64.30
2024-03-02T05:14:43.444Z,78.70
2024-03-02T05:15:43.478Z,67.20
2024-03-02T05:16:43.385Z,89.30
2024-03-02T05:17:43.439Z,73.50
2024-03-02T05:18:43.492Z,71.60
2024-03-02T05:19:43.364Z,64.60
2024-03-02T05:20:43.427Z,62.90
2024-03-02T05:21:43.403Z,66.90
2024-03-02T05:22:43.358Z,73.90
2024-03-02T05:23:43.342Z,71.10
2024-03-02T05:24:43.368Z,66.20
2024-03-02T05:25:43.342Z,61.80
2024-03-02T05:26:43.312Z,58.70
2024-03-02T05:27:43.417Z,54.20
2024-03-02T05:28:43.293Z,50.00
2024-03-02T05:29:43.439Z,50.60
2024-03-02T05:30:43.354Z,58.50
2024-03-02T05:31:43.274Z,54.40
2024-03-02T05:32:43.286Z,56.70
2024-03-02T05:33:43.377Z,54.80
2024-03-02T05:34:43.324Z,59.20
2024-03-02T05:35:43.246Z,57.40
2024-03-02T05:36:43.255Z,61.50
2024-03-02T05:37:43.246Z,60.50
2024-03-02T05:38:43.243Z,66.40
2024-03-02T05:39:43.263Z,68.60
2024-03-02T05:40:43.216Z,70.60
2024-03-02T05:41:43.204Z,73.30
2024-03-02T05:42:43.226Z,143.10
2024-03-02T05:43:43.219Z,166.30
2024-03-02T05:44:43.234Z,171.30
2024-03-02T05:45:43.270Z,268.60
2024-03-02T05:46:43.188Z,251.30
2024-03-02T05:47:43.185Z,306.10
2024-03-02T05:48:43.270Z,186.70
2024-03-02T05:49:43.153Z,143.50
2024-03-02T05:50:43.138Z,175.90
2024-03-02T05:51:43.171Z,237.00
2024-03-02T05:52:43.132Z,118.40
2024-03-02T05:53:43.192Z,129.80
2024-03-02T05:54:43.222Z,170.30
2024-03-02T05:55:43.116Z,183.00
2024-03-02T05:56:43.109Z,198.30
2024-03-02T05:57:43.167Z,114.60
2024-03-02T05:58:43.101Z,99.20
2024-03-02T05:59:43.088Z,147.10
2024-03-02T06:00:43.160Z,107.80
2024-03-02T06:01:43.163Z,133.70
2024-03-02T06:02:43.091Z,165.30
2024-03-02T06:03:43.105Z,171.00
2024-03-02T06:04:43.033Z,179.40
2024-03-02T06:05:43.054Z,149.10
2024-03-02T06:06:44.038Z,165.10
2024-03-02T06:07:43.053Z,102.20
2024-03-02T06:08:43.020Z,161.20
2024-03-02T06:09:43.043Z,145.00
2024-03-02T06:10:43.060Z,107.50
2024-03-02T06:11:43.004Z,101.80
2024-03-02T06:12:43.135Z,115.20
2024-03-02T06:13:43.034Z,109.20
2024-03-02T06:14:42.954Z,107.50
2024-03-02T06:15:42.972Z,88.60
2024-03-02T06:16:42.933Z,90.50
2024-03-02T06:17:43.034Z,93.80
2024-03-02T06:18:42.967Z,101.60
2024-03-02T06:19:42.936Z,142.10
2024-03-02T06:20:42.926Z,177.50
2024-03-02T06:21:43.003Z,196.60
2024-03-02T06:22:42.927Z,281.90
2024-03-02T06:23:42.887Z,217.20
2024-03-02T06:24:42.965Z,315.90
2024-03-02T06:25:42.938Z,187.40
2024-03-02T06:26:42.893Z,331.20
2024-03-02T06:27:42.937Z,203.10
2024-03-02T06:28:42.853Z,200.10
2024-03-02T06:29:42.876Z,91.20
2024-03-02T06:30:42.902Z,185.50
2024-03-02T06:31:42.864Z,195.00
2024-03-02T06:32:42.855Z,111.30
2024-03-02T06:33:42.987Z,145.50
2024-03-02T06:34:42.808Z,123.00
2024-03-02T06:35:42.795Z,327.20
2024-03-02T06:36:42.851Z,509.20
2024-03-02T06:37:42.787Z,400.80
2024-03-02T06:38:43.486Z,119.20
2024-03-02T06:39:42.843Z,196.70
2024-03-02T06:40:42.792Z,194.70
2024-03-02T06:41:42.776Z,152.90
2024-03-02T06:42:42.791Z,134.20
2024-03-02T06:43:42.746Z,132.30
2024-03-02T06:44:42.770Z,117.10
2024-03-02T06:45:42.860Z,118.00
2024-03-02T06:46:42.722Z,138.50
2024-03-02T06:47:42.727Z,155.30
2024-03-02T06:48:42.715Z,188.40
2024-03-02T06:49:43.008Z,119.00
2024-03-02T06:50:42.725Z,95.40
2024-03-02T06:51:42.683Z,123.30
2024-03-02T06:52:42.671Z,206.30
2024-03-02T06:53:42.680Z,391.40
2024-03-02T06:54:42.673Z,129.70
2024-03-02T06:55:42.683Z,118.00
2024-03-02T06:56:42.640Z,117.10
2024-03-02T06:57:42.690Z,115.80
2024-03-02T06:58:42.632Z,112.80
2024-03-02T06:59:42.611Z,122.40
2024-03-02T07:00:43.677Z,113.80
2024-03-02T07:01:42.632Z,159.20
2024-03-02T07:02:42.604Z,131.50
2024-03-02T07:03:42.657Z,91.70
2024-03-02T07:04:42.607Z,95.40
2024-03-02T07:05:42.627Z,104.30
2024-03-02T07:06:42.657Z,92.30
2024-03-02T07:07:42.560Z,68.10
2024-03-02T07:08:42.571Z,72.20
2024-03-02T07:09:42.653Z,105.10
2024-03-02T07:10:42.592Z,90.30
2024-03-02T07:11:42.529Z,83.40
2024-03-02T07:12:42.575Z,77.80
2024-03-02T07:13:42.544Z,72.80
2024-03-02T07:14:42.518Z,80.30
2024-03-02T07:15:42.516Z,82.30
2024-03-02T07:16:42.636Z,79.20
2024-03-02T07:17:42.525Z,91.20
2024-03-02T07:18:42.581Z,86.60
2024-03-02T07:19:42.576Z,76.60
2024-03-02T07:20:42.458Z,78.90
2024-03-02T07:21:42.522Z,72.00
2024-03-02T07:22:44.857Z,66.90
2024-03-02T07:23:43.437Z,66.80
2024-03-02T07:24:42.494Z,65.40
2024-03-02T07:27:43.445Z,64.60
2024-03-02T07:28:42.408Z,64.00
2024-03-02T07:29:42.418Z,63.80
2024-03-02T07:30:42.412Z,65.80
2024-03-02T07:31:42.378Z,68.70
2024-03-02T07:32:42.473Z,61.40
2024-03-02T07:33:42.459Z,86.00
2024-03-02T07:34:42.396Z,71.30
2024-03-02T07:35:42.337Z,88.90
2024-03-02T07:36:42.455Z,73.20
2024-03-02T07:37:42.344Z,71.10
2024-03-02T07:38:42.386Z,72.10
2024-03-02T07:39:42.381Z,63.10
2024-03-02T07:40:42.317Z,65.70
2024-03-02T07:41:42.297Z,56.10
2024-03-02T07:42:42.350Z,54.30
2024-03-02T07:43:42.307Z,52.80
2024-03-02T07:44:42.381Z,55.00
2024-03-02T07:45:42.284Z,60.00
2024-03-02T07:46:42.292Z,62.40
2024-03-02T07:47:42.273Z,58.70
2024-03-02T07:48:42.316Z,57.40
2024-03-02T07:49:42.251Z,53.70
2024-03-02T07:50:42.230Z,55.20
2024-03-02T07:51:42.239Z,53.70
2024-03-02T07:52:42.241Z,53.80
2024-03-02T07:53:42.247Z,51.50
2024-03-02T07:54:42.224Z,50.70
2024-03-02T07:55:42.251Z,50.90
2024-03-02T07:56:42.189Z,49.30
2024-03-02T07:57:42.232Z,46.10
2024-03-02T07:58:42.166Z,44.30
2024-03-02T07:59:42.253Z,43.60
2024-03-02T08:00:42.214Z,44.70
2024-03-02T08:01:42.279Z,42.20
2024-03-02T08:02:42.194Z,44.90
2024-03-02T08:03:42.169Z,42.90
2024-03-02T08:04:42.130Z,43.10
2024-03-02T08:05:42.120Z,40.30
2024-03-02T08:06:42.189Z,42.80
2024-03-02T08:07:42.114Z,42.90
2024-03-02T08:08:42.098Z,42.90
2024-03-02T08:09:42.100Z,41.00
2024-03-02T08:10:42.093Z,40.50
2024-03-02T08:11:42.150Z,41.00
2024-03-02T08:12:42.100Z,41.80
2024-03-02T08:13:42.162Z,42.90
2024-03-02T08:14:42.047Z,39.00
2024-03-02T08:15:42.072Z,41.50
2024-03-02T08:16:42.073Z,39.10
2024-03-02T08:17:43.098Z,40.00
2024-03-02T08:18:42.100Z,38.00
2024-03-02T08:19:42.018Z,37.80
2024-03-02T08:20:42.051Z,39.50
2024-03-02T08:21:42.083Z,38.30
2024-03-02T08:22:41.983Z,40.60
2024-03-02T08:23:43.152Z,36.40
2024-03-02T08:24:41.975Z,37.60
2024-03-02T08:25:42.016Z,38.90
2024-03-02T08:26:41.986Z,37.90
2024-03-02T08:27:41.987Z,36.80
2024-03-02T08:28:41.976Z,36.10
2024-03-02T08:29:41.967Z,38.60
2024-03-02T08:30:41.983Z,36.10
2024-03-02T08:31:42.556Z,37.10
2024-03-02T08:32:42.934Z,36.70
2024-03-02T08:33:42.022Z,38.50
2024-03-02T08:34:41.961Z,40.90
2024-03-02T08:35:41.915Z,39.70
2024-03-02T08:36:41.922Z,40.10
2024-03-02T08:37:41.925Z,39.30
2024-03-02T08:38:41.895Z,36.90
2024-03-02T08:39:41.928Z,38.60
2024-03-02T08:40:41.920Z,38.30
2024-03-02T08:41:41.894Z,37.30
2024-03-02T08:42:41.901Z,38.40
2024-03-02T08:43:41.867Z,39.10
2024-03-02T08:44:41.861Z,36.60
2024-03-02T08:45:41.875Z,38.10
2024-03-02T08:46:41.868Z,37.40
2024-03-02T08:47:41.831Z,38.10
2024-03-02T08:48:41.838Z,40.10
2024-03-02T08:49:41.814Z,38.20
2024-03-02T08:50:41.809Z,39.00
2024-03-02T08:51:41.820Z,39.40
2024-03-02T08:52:41.776Z,38.00
2024-03-02T08:53:41.807Z,38.20
2024-03-02T08:54:41.771Z,41.00
2024-03-02T08:55:41.750Z,39.70
2024-03-02T08:56:41.742Z,39.40
2024-03-02T08:57:41.767Z,38.10
2024-03-02T08:58:41.749Z,39.60
2024-03-02T08:59:41.726Z,39.10
2024-03-02T09:00:41.804Z,37.60
2024-03-02T09:01:41.774Z,37.90
2024-03-02T09:02:41.748Z,38.40
2024-03-02T09:03:41.771Z,35.90
2024-03-02T09:04:42.017Z,38.70
2024-03-02T09:05:41.669Z,37.80
2024-03-02T09:06:41.700Z,39.70
2024-03-02T09:07:41.671Z,39.70
2024-03-02T09:08:41.642Z,37.50
2024-03-02T09:09:41.710Z,34.10
2024-03-02T09:10:41.643Z,35.10
2024-03-02T09:11:41.623Z,37.20
2024-03-02T09:12:41.650Z,38.10
2024-03-02T09:13:41.616Z,36.30
2024-03-02T09:14:41.615Z,36.00
2024-03-02T09:15:41.637Z,34.30
2024-03-02T09:16:41.588Z,33.70
2024-03-02T09:17:41.713Z,34.30
2024-03-02T09:18:41.603Z,34.60
2024-03-02T09:19:41.559Z,33.20
2024-03-02T09:20:41.540Z,36.40
2024-03-02T09:21:41.615Z,34.60
2024-03-02T09:22:41.573Z,34.30
2024-03-02T09:23:41.559Z,36.10
2024-03-02T09:24:41.534Z,35.70
2024-03-02T09:25:41.516Z,35.80
2024-03-02T09:26:41.526Z,36.40
2024-03-02T09:27:41.521Z,35.40
2024-03-02T09:28:41.478Z,34.20
2024-03-02T09:29:41.481Z,35.70
2024-03-02T09:30:41.519Z,36.50
2024-03-02T09:31:41.481Z,33.50
2024-03-02T09:32:41.588Z,34.50
2024-03-02T09:33:41.524Z,34.30
2024-03-02T09:34:41.450Z,36.40
2024-03-02T09:35:41.431Z,35.00
2024-03-02T09:36:41.452Z,35.50
2024-03-02T09:37:41.409Z,34.10
2024-03-02T09:38:41.399Z,33.20
2024-03-02T09:39:41.409Z,33.70
2024-03-02T09:40:41.430Z,33.30
2024-03-02T09:41:41.415Z,31.30
2024-03-02T09:42:41.389Z,30.80
2024-03-02T09:43:41.367Z,33.40
2024-03-02T09:44:41.349Z,32.50
2024-03-02T09:45:41.397Z,34.10
2024-03-02T09:46:41.348Z,34.50
2024-03-02T09:47:41.357Z,34.80
2024-03-02T09:48:41.401Z,34.60
2024-03-02T09:49:41.342Z,34.40
2024-03-02T09:50:41.339Z,29.90
2024-03-02T09:51:41.344Z,30.00
2024-03-02T09:52:41.308Z,29.00
2024-03-02T09:53:41.290Z,28.70
2024-03-02T09:54:41.343Z,27.30
2024-03-02T09:55:41.331Z,29.20
2024-03-02T09:56:41.266Z,26.50
2024-03-02T09:57:41.855Z,23.50
2024-03-02T09:58:42.242Z,22.30
2024-03-02T09:59:41.267Z,20.90
2024-03-02T10:00:41.322Z,22.60
2024-03-02T10:01:41.261Z,21.70
2024-03-02T10:02:41.211Z,21.20
2024-03-02T10:03:42.783Z,20.00
2024-03-02T10:04:42.236Z,20.40
2024-03-02T10:05:41.217Z,19.50
2024-03-02T10:06:41.206Z,19.40
2024-03-02T10:07:41.183Z,19.00
2024-03-02T10:08:41.174Z,21.00
2024-03-02T10:09:41.236Z,19.40
2024-03-02T10:10:41.598Z,19.40
2024-03-02T10:11:41.145Z,19.60
2024-03-02T10:12:41.202Z,21.00
2024-03-02T10:13:41.124Z,21.40
2024-03-02T10:14:41.178Z,20.40
2024-03-02T10:15:41.204Z,21.60
2024-03-02T10:16:41.191Z,19.10
2024-03-02T10:17:41.159Z,19.90
2024-03-02T10:18:41.130Z,22.00
2024-03-02T10:19:41.148Z,20.80
2024-03-02T10:20:41.113Z,20.80
2024-03-02T10:21:41.079Z,20.40
2024-03-02T10:22:41.059Z,20.40
2024-03-02T10:23:41.080Z,20.80
2024-03-02T10:24:41.288Z,21.20
2024-03-02T10:25:47.629Z,21.50
2024-03-02T10:26:42.032Z,20.10
2024-03-02T10:27:41.097Z,19.70
2024-03-02T10:28:41.109Z,22.10
2024-03-02T10:29:41.096Z,23.60
2024-03-02T10:30:41.198Z,22.30
2024-03-02T10:31:41.074Z,22.90
2024-03-02T10:32:41.061Z,23.10
2024-03-02T10:33:41.038Z,20.10
2024-03-02T10:34:40.980Z,21.00
2024-03-02T10:35:41.105Z,22.80
2024-03-02T10:36:40.989Z,24.00
2024-03-02T10:37:40.940Z,22.00
2024-03-02T10:38:40.967Z,21.70
2024-03-02T10:39:41.545Z,21.70
2024-03-02T10:41:15.510Z,21.00
2024-03-02T10:41:40.905Z,20.30
2024-03-02T10:42:40.965Z,21.70
2024-03-02T10:43:40.974Z,21.70
2024-03-02T10:44:40.912Z,21.90
2024-03-02T10:45:40.912Z,23.30
2024-03-02T10:46:40.876Z,24.10
2024-03-02T10:47:40.936Z,22.80
2024-03-02T10:48:40.883Z,23.20
2024-03-02T10:49:40.840Z,22.10
2024-03-02T10:50:40.837Z,22.70
2024-03-02T10:51:40.847Z,21.60
2024-03-02T10:52:40.875Z,24.10
2024-03-02T10:53:40.814Z,21.20
2024-03-02T10:54:41.021Z,19.40
2024-03-02T10:55:40.876Z,20.60
2024-03-02T10:56:40.808Z,18.30
2024-03-02T10:57:40.902Z,19.30
2024-03-02T10:58:40.811Z,18.80
2024-03-02T10:59:40.793Z,18.60
2024-03-02T11:00:40.813Z,19.50
2024-03-02T11:01:40.871Z,18.30
2024-03-02T11:02:40.750Z,18.70
2024-03-02T11:03:40.854Z,18.70
2024-03-02T11:04:40.759Z,19.60
2024-03-02T11:05:40.743Z,17.70
2024-03-02T11:06:40.770Z,18.50
2024-03-02T11:07:40.703Z,21.60
2024-03-02T11:08:40.715Z,16.40
2024-03-02T11:09:40.718Z,16.80
2024-03-02T11:10:40.673Z,17.20
2024-03-02T11:11:40.692Z,18.10
2024-03-02T11:12:40.684Z,17.90
2024-03-02T11:13:42.445Z,18.50
2024-03-02T11:14:40.639Z,18.20
2024-03-02T11:15:40.742Z,16.80
2024-03-02T11:16:40.733Z,17.00
2024-03-02T11:17:40.665Z,17.80
2024-03-02T11:18:40.772Z,16.70
2024-03-02T11:19:40.657Z,14.70
2024-03-02T11:20:41.092Z,15.10
2024-03-02T11:21:40.668Z,15.20
2024-03-02T11:22:40.567Z,16.00
2024-03-02T11:23:40.623Z,15.70
2024-03-02T11:24:40.731Z,17.40
2024-03-02T11:25:40.636Z,16.20
2024-03-02T11:26:40.544Z,15.60
2024-03-02T11:27:40.624Z,15.20
2024-03-02T11:28:40.535Z,15.40
2024-03-02T11:29:40.525Z,15.70
2024-03-02T11:30:40.545Z,17.10
2024-03-02T11:31:40.507Z,16.00
2024-03-02T11:32:40.496Z,15.10
2024-03-02T11:33:40.552Z,15.80
2024-03-02T11:34:41.161Z,14.50
2024-03-02T11:35:40.505Z,15.20
2024-03-02T11:36:40.506Z,14.00
2024-03-02T11:37:40.462Z,14.10
2024-03-02T11:38:40.537Z,13.10
2024-03-02T11:39:40.572Z,11.20
2024-03-02T11:40:40.467Z,11.40
2024-03-02T11:41:40.436Z,10.60
2024-03-02T11:42:40.599Z,10.20
2024-03-02T11:43:40.432Z,11.30
2024-03-02T11:44:40.443Z,9.90
2024-03-02T11:45:40.490Z,10.30
2024-03-02T11:46:40.399Z,10.10
2024-03-02T11:47:40.398Z,10.10
2024-03-02T11:48:40.500Z,10.50
2024-03-02T11:49:40.406Z,10.10
2024-03-02T11:50:40.368Z,10.60
2024-03-02T11:51:40.383Z,12.60
2024-03-02T11:52:40.347Z,10.00
2024-03-02T11:53:40.347Z,9.60
2024-03-02T11:54:40.406Z,9.60
2024-03-02T11:55:40.329Z,9.60
2024-03-02T11:56:40.320Z,9.90
2024-03-02T11:57:40.332Z,9.60
2024-03-02T11:58:40.322Z,10.00
2024-03-02T11:59:40.334Z,9.90
2024-03-02T12:00:40.443Z,9.80
2024-03-02T12:01:40.331Z,9.90
2024-03-02T12:02:40.269Z,9.50
2024-03-02T12:03:40.369Z,10.30
2024-03-02T12:04:41.860Z,10.30
2024-03-02T12:05:41.281Z,10.90
2024-03-02T12:06:40.291Z,11.40
2024-03-02T12:07:40.237Z,10.60
2024-03-02T12:08:40.292Z,9.60
2024-03-02T12:09:40.233Z,9.90
2024-03-02T12:10:40.209Z,8.80
2024-03-02T12:11:40.236Z,9.30
2024-03-02T12:12:40.256Z,9.50
2024-03-02T12:13:40.219Z,9.70
2024-03-02T12:14:40.176Z,8.90
2024-03-02T12:15:40.324Z,9.10
2024-03-02T12:16:40.169Z,9.60
2024-03-02T12:17:40.190Z,9.10
2024-03-02T12:18:40.260Z,10.10
2024-03-02T12:19:40.144Z,9.50
2024-03-02T12:20:40.129Z,9.90
2024-03-02T12:21:40.165Z,9.90
2024-03-02T12:22:40.150Z,8.30
2024-03-02T12:23:40.138Z,9.40
2024-03-02T12:24:40.175Z,10.30
2024-03-02T12:25:40.096Z,8.50
2024-03-02T12:26:40.090Z,9.90
2024-03-02T12:27:40.126Z,10.30
2024-03-02T12:28:40.077Z,8.90
2024-03-02T12:29:40.069Z,8.50
2024-03-02T12:30:40.078Z,7.90
2024-03-02T12:31:40.058Z,8.90
2024-03-02T12:32:40.071Z,8.50
2024-03-02T12:33:40.173Z,9.60
2024-03-02T12:34:40.104Z,9.70
2024-03-02T12:35:40.049Z,9.00
2024-03-02T12:36:40.056Z,8.70
2024-03-02T12:37:40.032Z,8.20
2024-03-02T12:38:40.039Z,8.50
2024-03-02T12:39:40.038Z,8.20
2024-03-02T12:40:40.059Z,8.30
2024-03-02T12:41:40.079Z,9.60
2024-03-02T12:42:40.059Z,9.20
2024-03-02T12:43:39.956Z,9.50
2024-03-02T12:44:39.990Z,8.70
2024-03-02T12:45:39.966Z,10.30
2024-03-02T12:46:39.944Z,12.10
2024-03-02T12:47:39.961Z,11.50
2024-03-02T12:48:39.927Z,9.20
2024-03-02T12:49:39.927Z,10.40
2024-03-02T12:50:39.901Z,9.60
2024-03-02T12:51:39.980Z,10.50
2024-03-02T12:52:39.948Z,8.70
2024-03-02T12:53:39.872Z,8.20